createdAt,value
2022-09-05T00:00:17.517Z,14.65
2022-09-05T00:01:16.525Z,14.72
2022-09-05T00:02:17.553Z,14.66
2022-09-05T00:03:16.757Z,14.62
2022-09-05T00:04:25.006Z,14.63
2022-09-05T00:05:17.507Z,14.63
2022-09-05T00:06:16.505Z,14.63
2022-09-05T00:07:41.280Z,14.51
2022-09-05T00:08:17.489Z,14.58
2022-09-05T00:09:16.505Z,14.60
2022-09-05T00:10:16.520Z,14.60
2022-09-05T00:11:40.659Z,14.58
2022-09-05T00:12:18.466Z,14.60
2022-09-05T00:13:16.495Z,14.54
2022-09-05T00:14:16.453Z,14.54
2022-09-05T00:15:18.957Z,14.48
2022-09-05T00:16:17.473Z,14.51
2022-09-05T00:17:16.388Z,14.51
2022-09-05T00:23:29.080Z,14.58
2022-09-05T00:24:20.904Z,14.53
2022-09-05T00:24:23.041Z,14.58
2022-09-05T00:24:24.864Z,14.51
2022-09-05T00:24:26.077Z,14.55
2022-09-05T00:24:32.277Z,14.59
2022-09-05T00:24:37.403Z,14.55
2022-09-05T00:25:33.234Z,14.58
2022-09-05T00:26:18.371Z,14.51
2022-09-05T00:27:16.432Z,14.53
2022-09-05T00:28:25.286Z,14.55
2022-09-05T00:29:24.441Z,14.62
2022-09-05T00:31:06.225Z,14.51
2022-09-05T00:31:55.065Z,14.58
2022-09-05T00:32:17.350Z,14.55
2022-09-05T00:33:17.876Z,14.50
2022-09-05T00:34:16.278Z,14.47
2022-09-05T00:35:16.357Z,14.40
2022-09-05T00:36:16.259Z,14.37
2022-09-05T00:37:17.058Z,14.36
2022-09-05T00:38:16.300Z,14.37
2022-09-05T00:39:16.227Z,14.40
2022-09-05T00:40:18.605Z,14.37
2022-09-05T00:41:16.208Z,14.36
2022-09-05T00:42:16.210Z,14.40
2022-09-05T00:43:16.226Z,14.36
2022-09-05T00:44:16.233Z,14.33
2022-09-05T00:45:19.829Z,14.37
2022-09-05T00:46:16.251Z,14.29
2022-09-05T00:47:16.152Z,14.40
2022-09-05T00:48:16.193Z,14.32
2022-09-05T00:49:16.167Z,14.29
2022-09-05T00:50:16.158Z,14.25
2022-09-05T00:51:16.180Z,14.25
2022-09-05T00:52:16.106Z,14.26
2022-09-05T00:53:16.147Z,14.17
2022-09-05T00:54:16.121Z,14.17
2022-09-05T00:55:16.135Z,14.18
2022-09-05T00:56:16.099Z,14.18
2022-09-05T00:57:17.926Z,14.15
2022-09-05T00:58:16.191Z,14.15
2022-09-05T00:59:16.131Z,14.14
2022-09-05T01:00:17.889Z,14.15
2022-09-05T01:01:21.131Z,14.10
2022-09-05T01:02:16.161Z,14.10
2022-09-05T01:03:16.164Z,14.18
2022-09-05T01:04:16.055Z,14.22
2022-09-05T01:05:16.109Z,14.12
2022-09-05T01:06:16.023Z,14.14
2022-09-05T01:07:16.042Z,14.17
2022-09-05T01:08:16.090Z,14.28
2022-09-05T01:09:16.995Z,14.30
2022-09-05T01:10:16.067Z,14.35
2022-09-05T01:11:17.024Z,14.30
2022-09-05T01:12:16.053Z,14.29
2022-09-05T01:13:16.011Z,14.29
2022-09-05T01:14:15.987Z,14.25
2022-09-05T01:15:16.051Z,14.32
2022-09-05T01:16:16.059Z,14.33
2022-09-05T01:17:16.009Z,14.30
2022-09-05T01:18:16.024Z,14.26
2022-09-05T01:19:16.262Z,14.23
2022-09-05T01:20:19.290Z,14.23
2022-09-05T01:21:16.013Z,14.25
2022-09-05T01:22:15.940Z,14.26
2022-09-05T01:23:16.068Z,14.08
2022-09-05T01:24:15.958Z,14.17
2022-09-05T01:25:15.924Z,14.22
2022-09-05T01:26:15.952Z,14.14
2022-09-05T01:27:15.860Z,14.10
2022-09-05T01:29:14.054Z,14.03
2022-09-05T01:29:19.729Z,14.05
2022-09-05T01:30:16.884Z,14.14
2022-09-05T01:31:15.898Z,13.99
2022-09-05T01:32:15.894Z,13.97
2022-09-05T01:33:15.821Z,14.00
2022-09-05T01:34:16.572Z,13.83
2022-09-05T01:35:16.853Z,13.95
2022-09-05T01:36:15.808Z,13.89
2022-09-05T01:37:33.014Z,13.77
2022-09-05T01:38:16.769Z,13.79
2022-09-05T01:40:14.698Z,13.74
2022-09-05T01:40:17.223Z,13.75
2022-09-05T01:41:18.426Z,13.70
2022-09-05T01:42:16.716Z,13.68
2022-09-05T01:43:15.748Z,13.71
2022-09-05T01:44:15.755Z,13.63
2022-09-05T02:02:38.710Z,13.44
2022-09-05T02:03:38.511Z,13.42
2022-09-05T02:04:39.680Z,13.49
2022-09-05T02:05:48.675Z,13.42
2022-09-05T02:06:43.918Z,13.47
2022-09-05T02:07:39.660Z,13.50
2022-09-05T02:08:39.592Z,13.35
2022-09-05T02:09:39.603Z,13.46
2022-09-05T02:10:39.603Z,13.46
2022-09-05T02:11:39.606Z,13.39
2022-09-05T02:12:39.615Z,13.38
2022-09-05T02:13:39.597Z,13.41
2022-09-05T02:14:39.601Z,13.41
2022-09-05T02:16:13.742Z,13.31
2022-09-05T02:16:39.589Z,13.41
2022-09-05T02:17:51.023Z,13.23
2022-09-05T02:18:40.533Z,13.33
2022-09-05T02:19:39.534Z,13.20
2022-09-05T02:20:39.533Z,13.37
2022-09-05T02:21:55.663Z,13.31
2022-09-05T02:22:40.492Z,13.23
2022-09-05T02:23:41.898Z,13.33
2022-09-05T02:24:39.547Z,13.23
2022-09-05T02:26:01.197Z,13.30
2022-09-05T02:26:40.535Z,13.35
2022-09-05T02:28:04.310Z,13.20
2022-09-05T02:28:40.489Z,13.25
2022-09-05T02:29:39.462Z,13.27
2022-09-05T02:30:48.456Z,13.30
2022-09-05T02:31:40.551Z,13.33
2022-09-05T02:32:43.100Z,13.27
2022-09-05T02:33:39.431Z,13.18
2022-09-05T02:34:39.429Z,13.18
2022-09-05T02:35:39.428Z,13.12
2022-09-05T02:36:39.430Z,13.13
2022-09-05T02:38:19.939Z,13.12
2022-09-05T02:44:16.916Z,13.11
2022-09-05T02:45:08.639Z,13.08
2022-09-05T02:45:13.411Z,13.04
2022-09-05T02:45:14.211Z,13.05
2022-09-05T02:45:18.371Z,13.09
2022-09-05T02:45:18.590Z,13.04
2022-09-05T02:45:19.430Z,13.03
2022-09-05T02:45:40.433Z,13.03
2022-09-05T02:46:39.505Z,13.04
2022-09-05T02:47:39.320Z,13.16
2022-09-05T02:48:39.331Z,13.15
2022-09-05T02:52:21.287Z,13.15
2022-09-05T02:55:14.959Z,13.09
2022-09-05T02:57:24.772Z,13.19
2022-09-05T02:57:38.162Z,13.23
2022-09-05T02:57:38.993Z,13.12
2022-09-05T02:57:43.480Z,13.15
2022-09-05T02:57:46.832Z,13.13
2022-09-05T02:58:05.478Z,13.08
2022-09-05T02:58:05.874Z,13.18
2022-09-05T02:59:08.040Z,13.09
2022-09-05T02:59:41.228Z,13.11
2022-09-05T03:00:40.192Z,13.11
2022-09-05T03:01:39.305Z,13.09
2022-09-05T03:02:39.260Z,13.08
2022-09-05T03:03:39.422Z,13.09
2022-09-05T03:04:39.195Z,13.08
2022-09-05T03:05:39.207Z,13.08
2022-09-05T03:06:39.230Z,13.08
2022-09-05T03:07:39.216Z,13.01
2022-09-05T03:08:39.169Z,13.01
2022-09-05T03:09:39.187Z,12.97
2022-09-05T03:10:54.469Z,13.08
2022-09-05T03:11:40.155Z,12.87
2022-09-05T03:12:39.210Z,12.91
2022-09-05T03:13:50.140Z,12.90
2022-09-05T03:14:40.162Z,12.83
2022-09-05T03:15:39.169Z,12.78
2022-09-05T03:16:47.348Z,12.72
2022-09-05T03:17:40.106Z,12.73
2022-09-05T03:18:39.124Z,12.82
2022-09-05T03:19:46.114Z,12.79
2022-09-05T03:20:40.100Z,12.75
2022-09-05T03:21:39.063Z,12.70
2022-09-05T03:22:39.109Z,12.67
2022-09-05T03:23:39.062Z,12.61
2022-09-05T03:24:39.082Z,12.68
2022-09-05T03:25:39.067Z,12.62
2022-09-05T03:26:39.064Z,12.70
2022-09-05T03:27:39.052Z,12.58
2022-09-05T03:28:39.817Z,12.65
2022-09-05T03:29:39.015Z,12.67
2022-09-05T03:30:39.094Z,12.60
2022-09-05T03:31:38.995Z,12.64
2022-09-05T03:32:40.243Z,12.55
2022-09-05T03:33:38.967Z,12.64
2022-09-05T03:34:38.988Z,12.70
2022-09-05T03:35:39.955Z,12.54
2022-09-05T03:36:38.973Z,12.55
2022-09-05T03:37:38.958Z,12.58
2022-09-05T03:38:38.951Z,12.53
2022-09-05T03:39:39.040Z,12.50
2022-09-05T03:40:38.941Z,12.46
2022-09-05T03:41:40.610Z,12.45
2022-09-05T03:42:38.944Z,12.47
2022-09-05T03:43:38.900Z,12.46
2022-09-05T03:44:38.885Z,12.37
2022-09-05T03:45:38.882Z,12.39
2022-09-05T03:46:38.914Z,12.43
2022-09-05T04:04:37.930Z,12.06
2022-09-05T04:08:07.559Z,12.02
2022-09-05T04:08:10.906Z,12.18
2022-09-05T04:08:17.538Z,12.07
2022-09-05T04:08:17.883Z,12.17
2022-09-05T04:08:28.964Z,12.13
2022-09-05T04:08:41.288Z,12.20
2022-09-05T04:09:49.999Z,12.15
2022-09-05T04:10:31.902Z,12.13
2022-09-05T04:11:29.802Z,12.12
2022-09-05T04:12:29.796Z,12.20
2022-09-05T04:13:29.802Z,12.24
2022-09-05T04:14:29.801Z,12.36
2022-09-05T04:15:29.768Z,12.22
2022-09-05T04:16:29.817Z,12.27
2022-09-05T04:17:30.755Z,12.35
2022-09-05T04:18:32.794Z,12.45
2022-09-05T04:19:29.748Z,12.46
2022-09-05T04:20:29.768Z,12.27
2022-09-05T04:21:29.754Z,12.32
2022-09-05T04:22:29.775Z,12.32
2022-09-05T04:23:29.752Z,12.27
2022-09-05T04:24:29.741Z,12.24
2022-09-05T04:25:29.693Z,12.13
2022-09-05T04:26:29.713Z,12.27
2022-09-05T04:27:29.682Z,12.17
2022-09-05T04:28:29.695Z,12.18
2022-09-05T04:29:29.714Z,12.17
2022-09-05T04:30:39.007Z,12.17
2022-09-05T04:31:30.735Z,12.24
2022-09-05T04:32:29.670Z,12.13
2022-09-05T04:33:36.208Z,12.12
2022-09-05T04:34:30.660Z,12.13
2022-09-05T04:35:29.644Z,12.06
2022-09-05T04:36:29.628Z,12.13
2022-09-05T04:37:29.600Z,12.13
2022-09-05T04:38:30.602Z,12.12
2022-09-05T04:39:29.710Z,12.07
2022-09-05T04:40:32.765Z,12.12
2022-09-05T04:41:39.320Z,12.18
2022-09-05T04:42:30.558Z,12.04
2022-09-05T04:43:29.551Z,12.03
2022-09-05T04:44:30.606Z,12.09
2022-09-05T04:45:29.711Z,12.12
2022-09-05T04:46:29.624Z,12.13
2022-09-05T04:47:29.601Z,12.04
2022-09-05T04:48:30.283Z,12.20
2022-09-05T04:49:29.553Z,12.09
2022-09-05T04:50:37.205Z,12.13
2022-09-05T04:51:32.373Z,12.07
2022-09-05T04:52:32.283Z,12.17
2022-09-05T04:53:29.544Z,12.07
2022-09-05T04:54:30.087Z,12.18
2022-09-05T04:55:30.551Z,12.20
2022-09-05T04:56:29.554Z,12.03
2022-09-05T04:57:29.592Z,12.03
2022-09-05T04:58:42.050Z,12.09
2022-09-05T05:01:58.948Z,12.04
2022-09-05T05:05:59.853Z,12.10
2022-09-05T05:06:04.286Z,12.09
2022-09-05T05:06:10.664Z,12.13
2022-09-05T05:06:12.234Z,12.20
2022-09-05T05:06:13.727Z,12.15
2022-09-05T05:06:14.659Z,12.13
2022-09-05T05:06:44.042Z,12.18
2022-09-05T05:07:31.548Z,12.13
2022-09-05T05:08:39.095Z,12.15
2022-09-05T05:09:30.415Z,12.20
2022-09-05T05:11:51.133Z,12.10
2022-09-05T05:18:00.473Z,12.31
2022-09-05T05:18:00.927Z,12.24
2022-09-05T05:18:03.432Z,12.20
2022-09-05T05:18:10.386Z,12.29
2022-09-05T05:18:14.074Z,12.28
2022-09-05T05:18:14.829Z,12.20
2022-09-05T05:18:16.107Z,12.22
2022-09-05T05:18:39.509Z,12.35
2022-09-05T05:19:30.363Z,12.39
2022-09-05T05:20:42.384Z,12.46
2022-09-05T05:21:30.276Z,12.72
2022-09-05T05:22:29.274Z,13.23
2022-09-05T05:23:29.238Z,13.70
2022-09-05T05:24:29.241Z,14.20
2022-09-05T05:25:29.246Z,14.69
2022-09-05T05:26:29.247Z,15.06
2022-09-05T05:27:29.215Z,15.47
2022-09-05T05:28:29.243Z,15.76
2022-09-05T05:29:29.241Z,16.15
2022-09-05T05:30:29.190Z,16.57
2022-09-05T05:31:29.215Z,17.09
2022-09-05T05:32:45.854Z,17.48
2022-09-05T05:33:30.280Z,17.78
2022-09-05T05:34:29.211Z,17.89
2022-09-05T05:35:29.192Z,18.18
2022-09-05T05:36:29.187Z,18.35
2022-09-05T05:37:29.135Z,18.68
2022-09-05T05:38:29.178Z,18.62
2022-09-05T05:39:29.206Z,18.56
2022-09-05T05:40:29.153Z,18.35
2022-09-05T05:41:29.137Z,18.49
2022-09-05T05:42:29.147Z,18.55
2022-09-05T05:43:29.110Z,18.68
2022-09-05T05:44:29.084Z,18.89
2022-09-05T05:45:29.091Z,19.19
2022-09-05T05:46:29.159Z,19.08
2022-09-05T05:47:32.150Z,18.95
2022-09-05T05:48:29.075Z,18.75
2022-09-05T05:49:29.069Z,18.56
2022-09-05T05:50:29.079Z,18.44
2022-09-05T05:51:44.087Z,18.34
2022-09-05T05:52:30.046Z,18.26
2022-09-05T05:53:42.422Z,18.55
2022-09-05T05:54:30.039Z,18.68
2022-09-05T05:55:51.695Z,19.00
2022-09-05T05:56:30.200Z,19.00
2022-09-05T05:57:29.006Z,19.21
2022-09-05T05:58:29.339Z,19.44
2022-09-05T05:59:28.967Z,19.64
2022-09-05T06:00:30.142Z,19.74
2022-09-05T06:01:38.100Z,19.84
2022-09-05T06:02:30.094Z,20.04
2022-09-05T06:03:29.042Z,19.79
2022-09-05T06:04:28.989Z,19.95
2022-09-05T06:05:28.967Z,19.48
2022-09-05T06:06:28.946Z,19.11
2022-09-05T06:07:28.979Z,19.08
2022-09-05T06:10:06.514Z,19.11
2022-09-05T06:12:53.617Z,19.29
2022-09-05T06:14:50.284Z,19.11
2022-09-05T06:14:55.863Z,19.84
2022-09-05T06:14:55.982Z,21.03
2022-09-05T06:14:56.700Z,20.24
2022-09-05T06:14:57.750Z,19.58
2022-09-05T06:15:30.500Z,21.33
2022-09-05T06:16:28.930Z,21.30
2022-09-05T06:17:28.878Z,21.03
2022-09-05T06:18:28.868Z,21.33
2022-09-05T06:19:43.605Z,21.29
2022-09-05T06:22:07.805Z,21.12
2022-09-05T06:22:08.301Z,20.47
2022-09-05T06:22:29.798Z,20.59
2022-09-05T06:23:39.311Z,20.78
2022-09-05T06:24:29.860Z,20.82
2022-09-05T06:25:28.808Z,20.81
2022-09-05T06:26:28.807Z,21.29
2022-09-05T06:27:28.754Z,21.48
2022-09-05T06:28:28.786Z,21.21
2022-09-05T06:29:34.627Z,21.20
2022-09-05T06:30:31.089Z,21.39
2022-09-05T06:31:29.883Z,21.73
2022-09-05T06:32:28.937Z,21.21
2022-09-05T06:33:28.778Z,21.11
2022-09-05T06:34:35.867Z,21.25
2022-09-05T06:35:29.718Z,21.67
2022-09-05T06:36:28.730Z,21.57
2022-09-05T06:37:28.730Z,21.62
2022-09-05T06:38:28.704Z,21.09
2022-09-05T06:39:28.778Z,20.82
2022-09-05T06:40:32.045Z,20.36
2022-09-05T06:41:29.755Z,20.77
2022-09-05T06:42:42.812Z,20.70
2022-09-05T06:43:29.702Z,20.84
2022-09-05T06:44:28.686Z,21.12
2022-09-05T06:45:28.994Z,21.15
2022-09-05T06:46:50.597Z,21.09
2022-09-05T06:47:33.960Z,21.55
2022-09-05T06:48:44.149Z,22.38
2022-09-05T06:49:37.291Z,22.78
2022-09-05T06:50:29.710Z,22.90
2022-09-05T06:51:29.638Z,22.29
2022-09-05T06:52:30.407Z,21.91
2022-09-05T06:53:28.582Z,21.79
2022-09-05T06:54:28.619Z,21.89
2022-09-05T06:55:28.587Z,22.04
2022-09-05T06:56:28.550Z,21.88
2022-09-05T06:57:28.572Z,21.79
2022-09-05T06:58:28.611Z,21.80
2022-09-05T06:59:28.583Z,21.76
2022-09-05T07:00:28.640Z,21.95
2022-09-05T07:01:55.204Z,21.89
2022-09-05T07:02:59.439Z,21.55
2022-09-05T07:03:29.771Z,21.15
2022-09-05T07:05:21.766Z,21.12
2022-09-05T07:05:38.680Z,21.37
2022-09-05T07:06:59.339Z,21.29
2022-09-05T07:07:29.508Z,21.54
2022-09-05T07:08:35.965Z,21.77
2022-09-05T07:09:29.478Z,21.80
2022-09-05T07:10:38.312Z,22.07
2022-09-05T07:11:30.486Z,22.23
2022-09-05T07:12:30.184Z,22.45
2022-09-05T07:13:29.083Z,22.25
2022-09-05T07:14:29.452Z,21.75
2022-09-05T07:15:28.434Z,21.82
2022-09-05T07:16:37.468Z,21.61
2022-09-05T07:17:29.399Z,21.39
2022-09-05T07:18:30.008Z,21.48
2022-09-05T07:19:28.420Z,21.52
2022-09-05T07:20:28.567Z,21.61
2022-09-05T07:21:28.399Z,21.69
2022-09-05T07:22:47.925Z,22.15
2022-09-05T07:23:52.740Z,22.29
2022-09-05T07:24:53.499Z,22.47
2022-09-05T07:25:31.630Z,22.55
2022-09-05T07:26:29.360Z,22.59
2022-09-05T07:27:29.350Z,22.59
2022-09-05T07:28:30.517Z,22.57
2022-09-05T07:29:28.322Z,22.60
2022-09-05T07:30:28.348Z,22.57
2022-09-05T07:31:37.922Z,22.75
2022-09-05T07:32:29.313Z,22.87
2022-09-05T07:33:28.433Z,22.93
2022-09-05T07:34:28.281Z,22.84
2022-09-05T07:35:28.274Z,22.84
2022-09-05T07:36:28.293Z,22.80
2022-09-05T07:37:28.351Z,22.96
2022-09-05T07:38:48.345Z,22.84
2022-09-05T07:39:29.648Z,22.76
2022-09-05T07:40:29.369Z,22.76
2022-09-05T07:41:28.282Z,22.91
2022-09-05T07:42:28.247Z,23.63
2022-09-05T07:43:28.352Z,23.80
2022-09-05T07:44:28.281Z,23.86
2022-09-05T07:45:28.248Z,24.05
2022-09-05T07:46:28.220Z,23.99
2022-09-05T07:47:28.225Z,23.78
2022-09-05T07:48:35.053Z,23.09
2022-09-05T07:49:31.118Z,23.15
2022-09-05T07:52:32.563Z,22.84
2022-09-05T07:55:26.246Z,22.83
2022-09-05T07:56:49.701Z,23.61
2022-09-05T07:56:58.765Z,24.77
2022-09-05T07:57:04.794Z,24.63
2022-09-05T07:57:06.157Z,24.29
2022-09-05T07:57:10.790Z,24.70
2022-09-05T07:57:31.689Z,24.69
2022-09-05T07:58:29.123Z,24.92
2022-09-05T07:59:28.173Z,24.95
2022-09-05T08:00:29.676Z,25.38
2022-09-05T08:01:28.190Z,26.23
2022-09-05T08:02:28.122Z,26.52
2022-09-05T08:03:28.073Z,27.17
2022-09-05T08:04:28.066Z,27.48
2022-09-05T08:05:35.199Z,27.83
2022-09-05T08:07:45.859Z,27.33
2022-09-05T08:07:48.854Z,27.54
2022-09-05T08:08:29.103Z,26.83
2022-09-05T08:10:09.204Z,27.11
2022-09-05T08:10:31.435Z,26.96
2022-09-05T08:11:29.027Z,26.37
2022-09-05T08:12:28.411Z,25.98
2022-09-05T08:13:28.925Z,26.36
2022-09-05T08:14:45.269Z,26.16
2022-09-05T08:16:10.379Z,25.23
2022-09-05T08:16:29.967Z,24.51
2022-09-05T08:17:30.140Z,24.28
2022-09-05T08:18:28.546Z,24.35
2022-09-05T08:19:27.979Z,25.07
2022-09-05T08:20:27.999Z,25.25
2022-09-05T08:21:28.094Z,25.77
2022-09-05T08:22:27.962Z,26.40
2022-09-05T08:23:27.911Z,26.25
2022-09-05T08:24:28.948Z,26.26
2022-09-05T08:25:37.587Z,26.41
2022-09-05T08:26:29.546Z,26.52
2022-09-05T08:27:28.546Z,27.10
2022-09-05T08:28:39.290Z,27.42
2022-09-05T08:29:28.925Z,26.93
2022-09-05T08:30:28.168Z,27.07
2022-09-05T08:31:28.956Z,26.92
2022-09-05T08:32:32.130Z,26.21
2022-09-05T08:33:28.841Z,26.29
2022-09-05T08:34:31.510Z,26.19
2022-09-05T08:35:28.880Z,26.09
2022-09-05T08:36:27.822Z,26.29
2022-09-05T08:37:27.858Z,26.44
2022-09-05T08:38:27.843Z,26.68
2022-09-05T08:39:28.902Z,26.60
2022-09-05T08:40:27.902Z,26.36
2022-09-05T08:41:50.403Z,26.13
2022-09-05T08:42:28.875Z,26.34
2022-09-05T08:46:35.412Z,26.23
2022-09-05T08:46:40.343Z,26.40
2022-09-05T08:46:40.903Z,26.75
2022-09-05T08:46:44.583Z,26.29
2022-09-05T08:47:31.923Z,26.85
2022-09-05T08:48:28.831Z,26.77
2022-09-05T08:49:37.035Z,27.37
2022-09-05T08:50:28.872Z,27.95
2022-09-05T08:51:27.799Z,27.83
2022-09-05T08:52:27.742Z,28.20
2022-09-05T08:53:45.903Z,28.49
2022-09-05T08:54:28.812Z,28.22
2022-09-05T08:55:27.725Z,28.49
2022-09-05T08:56:27.743Z,28.29
2022-09-05T08:57:27.738Z,28.27
2022-09-05T08:58:27.719Z,27.98
2022-09-05T08:59:33.045Z,28.38
2022-09-05T09:00:31.411Z,28.52
2022-09-05T09:01:27.698Z,28.67
2022-09-05T09:02:47.646Z,28.54
2022-09-05T09:03:28.789Z,29.01
2022-09-05T09:05:01.629Z,29.79
2022-09-05T09:06:12.290Z,29.20
2022-09-05T09:06:28.625Z,28.79
2022-09-05T09:07:47.971Z,28.94
2022-09-05T09:08:28.652Z,29.32
2022-09-05T09:09:27.694Z,29.41
2022-09-05T09:10:27.681Z,28.52
2022-09-05T09:11:27.641Z,27.89
2022-09-05T09:12:27.850Z,28.74
2022-09-05T09:13:28.111Z,28.91
2022-09-05T09:14:30.593Z,29.17
2022-09-05T09:15:27.607Z,29.54
2022-09-05T09:16:28.610Z,30.50
2022-09-05T09:17:29.297Z,30.81
2022-09-05T09:18:27.574Z,30.78
2022-09-05T09:19:29.030Z,29.72
2022-09-05T09:20:27.646Z,29.38
2022-09-05T09:21:27.627Z,29.17
2022-09-05T09:22:28.616Z,29.69
2022-09-05T09:23:31.915Z,29.71
2022-09-05T09:24:27.603Z,30.03
2022-09-05T09:25:30.641Z,30.16
2022-09-05T09:26:28.551Z,30.68
2022-09-05T09:27:36.427Z,30.84
2022-09-05T09:28:49.488Z,31.17
2022-09-05T09:29:28.510Z,31.97
2022-09-05T09:30:27.554Z,32.18
2022-09-05T09:31:27.585Z,32.23
2022-09-05T09:32:27.497Z,32.01
2022-09-05T09:33:27.563Z,32.18
2022-09-05T09:34:27.529Z,32.51
2022-09-05T09:35:27.509Z,32.96
2022-09-05T09:36:27.495Z,33.30
2022-09-05T09:37:35.578Z,33.20
2022-09-05T09:38:28.460Z,32.74
2022-09-05T09:39:39.204Z,32.58
2022-09-05T09:40:28.437Z,32.59
2022-09-05T09:41:27.473Z,32.73
2022-09-05T09:42:33.062Z,31.74
2022-09-05T09:43:28.444Z,31.34
2022-09-05T09:44:27.493Z,31.70
2022-09-05T09:45:28.963Z,31.74
2022-09-05T09:46:27.479Z,31.94
2022-09-05T09:47:27.422Z,32.11
2022-09-05T09:48:27.398Z,32.22
2022-09-05T09:49:27.404Z,32.31
2022-09-05T09:50:27.375Z,32.33
2022-09-05T09:51:27.422Z,32.92
2022-09-05T09:52:27.401Z,33.52
2022-09-05T09:53:27.352Z,33.40
2022-09-05T09:54:27.376Z,32.37
2022-09-05T09:55:27.337Z,31.09
2022-09-05T09:56:27.349Z,31.44
2022-09-05T09:57:27.340Z,31.09
2022-09-05T09:58:29.188Z,30.23
2022-09-05T09:59:27.335Z,30.25
2022-09-05T10:00:27.305Z,30.23
2022-09-05T10:01:36.043Z,30.32
2022-09-05T10:04:57.930Z,31.31
2022-09-05T10:10:04.376Z,32.31
2022-09-05T10:10:39.559Z,32.37
2022-09-05T10:10:44.211Z,31.56
2022-09-05T10:10:45.153Z,31.07
2022-09-05T10:10:45.890Z,31.47
2022-09-05T10:10:48.844Z,31.25
2022-09-05T10:10:57.332Z,30.83
2022-09-05T10:10:57.644Z,31.18
2022-09-05T10:12:29.309Z,31.89
2022-09-05T10:13:27.459Z,32.12
2022-09-05T10:14:47.832Z,31.22
2022-09-05T10:15:31.648Z,31.55
2022-09-05T10:16:27.317Z,31.46
2022-09-05T10:17:27.205Z,31.27
2022-09-05T10:18:27.207Z,31.33
2022-09-05T10:20:29.641Z,30.83
2022-09-05T10:21:28.167Z,30.97
2022-09-05T10:22:36.534Z,31.22
2022-09-05T10:23:29.161Z,31.49
2022-09-05T10:24:27.245Z,31.51
2022-09-05T10:25:28.052Z,31.55
2022-09-05T10:26:27.518Z,31.65
2022-09-05T10:27:27.139Z,31.58
2022-09-05T10:28:27.163Z,31.47
2022-09-05T10:29:36.532Z,31.52
2022-09-05T10:31:09.582Z,31.64
2022-09-05T10:33:02.434Z,31.39
2022-09-05T10:35:07.489Z,32.04
2022-09-05T10:35:16.769Z,32.12
2022-09-05T10:35:16.836Z,32.56
2022-09-05T10:35:28.447Z,32.03
2022-09-05T10:36:27.160Z,32.07
2022-09-05T10:37:27.077Z,32.43
2022-09-05T10:38:27.122Z,32.36
2022-09-05T10:39:27.171Z,31.92
2022-09-05T10:40:27.077Z,31.73
2022-09-05T10:41:27.054Z,31.56
2022-09-05T10:42:27.072Z,31.78
2022-09-05T10:43:27.070Z,31.54
2022-09-05T10:44:27.115Z,31.44
2022-09-05T10:45:31.362Z,31.58
2022-09-05T10:46:49.410Z,31.64
2022-09-05T10:47:29.042Z,31.52
2022-09-05T10:48:27.026Z,31.06
2022-09-05T10:49:30.493Z,30.84
2022-09-05T10:50:27.058Z,30.31
2022-09-05T10:51:28.269Z,30.02
2022-09-05T10:52:27.020Z,30.06
2022-09-05T10:53:27.042Z,29.82
2022-09-05T10:54:28.059Z,29.26
2022-09-05T10:55:26.991Z,29.73
2022-09-05T10:56:28.623Z,29.94
2022-09-05T10:57:26.918Z,30.06
2022-09-05T10:58:40.361Z,30.37
2022-09-05T11:01:19.350Z,30.24
2022-09-05T11:02:16.496Z,30.28
2022-09-05T11:02:30.041Z,30.40
2022-09-05T11:02:33.593Z,30.34
2022-09-05T11:03:29.286Z,30.73
2022-09-05T11:04:26.976Z,31.27
2022-09-05T11:05:27.493Z,31.89
2022-09-05T11:06:26.914Z,32.37
2022-09-05T11:07:29.804Z,32.85
2022-09-05T11:08:26.855Z,32.65
2022-09-05T11:09:26.833Z,31.80
2022-09-05T11:10:26.833Z,31.54
2022-09-05T11:11:34.068Z,30.59
2022-09-05T11:12:27.849Z,30.32
2022-09-05T11:13:27.018Z,30.10
2022-09-05T11:14:27.399Z,29.26
2022-09-05T11:15:26.793Z,29.17
2022-09-05T11:16:26.858Z,28.85
2022-09-05T11:17:26.780Z,28.33
2022-09-05T11:18:27.121Z,28.11
2022-09-05T11:19:27.839Z,28.22
2022-09-05T11:20:34.959Z,28.05
2022-09-05T11:21:27.806Z,28.48
2022-09-05T11:22:26.735Z,28.78
2022-09-05T11:23:26.776Z,29.01
2022-09-05T11:24:27.665Z,28.93
2022-09-05T11:25:39.681Z,29.14
2022-09-05T11:26:27.723Z,28.85
2022-09-05T11:27:26.723Z,28.47
2022-09-05T11:28:27.025Z,28.33
2022-09-05T11:29:26.705Z,28.37
2022-09-05T11:30:29.938Z,28.19
2022-09-05T11:31:34.080Z,28.22
2022-09-05T11:37:44.384Z,28.42
2022-09-05T11:39:46.814Z,29.02
2022-09-05T11:39:50.616Z,28.74
2022-09-05T11:39:51.297Z,29.32
2022-09-05T11:40:00.115Z,29.04
2022-09-05T11:40:06.455Z,29.56
2022-09-05T11:40:09.797Z,29.57
2022-09-05T11:40:10.549Z,29.39
2022-09-05T11:41:29.588Z,29.44
2022-09-05T11:42:26.607Z,29.59
2022-09-05T11:43:26.609Z,29.76
2022-09-05T11:44:27.396Z,29.94
2022-09-05T11:45:27.589Z,29.84
2022-09-05T11:46:27.833Z,29.44
2022-09-05T11:47:30.285Z,29.14
2022-09-05T11:48:27.547Z,29.12
2022-09-05T11:49:26.576Z,29.27
2022-09-05T11:50:26.527Z,29.27
2022-09-05T11:51:33.874Z,29.39
2022-09-05T11:52:27.546Z,29.38
2022-09-05T11:53:26.518Z,29.57
2022-09-05T11:54:26.550Z,29.36
2022-09-05T11:55:26.515Z,29.38
2022-09-05T11:56:28.850Z,29.65
2022-09-05T11:57:33.143Z,30.00
2022-09-05T11:58:43.492Z,29.95
2022-09-05T11:59:33.511Z,30.24
2022-09-05T12:00:31.372Z,30.37
2022-09-05T12:01:43.047Z,30.40
2022-09-05T12:02:27.552Z,30.78
2022-09-05T12:03:57.287Z,31.14
2022-09-05T12:04:27.482Z,31.44
2022-09-05T12:05:48.523Z,31.96
2022-09-05T12:06:27.462Z,32.21
2022-09-05T12:07:31.906Z,32.18
2022-09-05T12:08:28.762Z,32.53
2022-09-05T12:09:26.436Z,32.36
2022-09-05T12:10:43.396Z,32.63
2022-09-05T12:11:27.440Z,32.30
2022-09-05T12:12:38.660Z,31.76
2022-09-05T12:13:29.346Z,31.65
2022-09-05T12:14:26.424Z,31.85
2022-09-05T12:15:26.391Z,31.85
2022-09-05T12:16:26.859Z,31.93
2022-09-05T12:17:34.950Z,31.84
2022-09-05T12:18:27.644Z,31.90
2022-09-05T12:19:26.347Z,31.90
2022-09-05T12:20:26.390Z,31.94
2022-09-05T12:21:26.361Z,32.29
2022-09-05T12:22:26.328Z,32.37
2022-09-05T12:23:39.916Z,32.11
2022-09-05T12:25:23.817Z,31.27
2022-09-05T12:27:39.156Z,30.77
2022-09-05T12:27:39.386Z,31.20
2022-09-05T12:27:39.427Z,31.25
2022-09-05T12:29:28.176Z,30.25
2022-09-05T12:29:36.190Z,29.95
2022-09-05T12:30:30.078Z,29.32
2022-09-05T12:32:36.385Z,29.08
2022-09-05T12:33:32.332Z,28.82
2022-09-05T12:36:05.683Z,28.33
2022-09-05T12:36:06.882Z,28.62
2022-09-05T12:36:13.111Z,28.59
2022-09-05T12:40:53.949Z,28.39
2022-09-05T12:40:56.296Z,28.94
2022-09-05T12:40:56.746Z,28.57
2022-09-05T12:41:34.718Z,28.75
2022-09-05T12:41:35.013Z,29.17
2022-09-05T12:41:36.786Z,29.54
2022-09-05T12:42:34.479Z,29.45
2022-09-05T12:44:40.354Z,29.49
2022-09-05T12:44:42.523Z,29.42
2022-09-05T12:45:37.284Z,29.73
2022-09-05T12:46:27.174Z,29.93
2022-09-05T12:47:26.174Z,30.08
2022-09-05T12:48:26.271Z,30.12
2022-09-05T12:49:28.591Z,30.39
2022-09-05T12:50:27.123Z,30.43
2022-09-05T12:51:46.120Z,30.50
2022-09-05T12:52:27.168Z,30.48
2022-09-05T12:53:26.674Z,30.75
2022-09-05T12:54:33.565Z,30.85
2022-09-05T12:55:27.059Z,30.66
2022-09-05T12:57:46.304Z,30.48
2022-09-05T13:02:57.166Z,30.69
2022-09-05T13:02:58.598Z,30.69
2022-09-05T13:02:58.937Z,30.39
2022-09-05T13:02:59.446Z,30.28
2022-09-05T13:03:03.808Z,30.32
2022-09-05T13:03:13.668Z,30.57
2022-09-05T13:03:29.862Z,30.92
2022-09-05T13:04:31.746Z,31.05
2022-09-05T13:05:28.148Z,31.00
2022-09-05T13:06:26.238Z,30.73
2022-09-05T13:07:27.001Z,30.83
2022-09-05T13:08:26.038Z,30.78
2022-09-05T13:10:08.980Z,30.77
2022-09-05T13:14:49.122Z,30.84
2022-09-05T13:14:49.894Z,31.10
2022-09-05T13:14:52.851Z,31.21
2022-09-05T13:14:57.662Z,31.10
2022-09-05T13:14:59.082Z,31.25
2022-09-05T13:15:27.652Z,30.84
2022-09-05T13:16:25.991Z,30.80
2022-09-05T13:17:25.929Z,30.44
2022-09-05T13:18:25.964Z,30.66
2022-09-05T13:19:25.933Z,30.91
2022-09-05T13:20:25.962Z,31.33
2022-09-05T13:21:25.940Z,31.21
2022-09-05T13:22:25.887Z,31.07
2022-09-05T13:23:25.943Z,31.42
2022-09-05T13:24:26.666Z,31.71
2022-09-05T13:25:25.938Z,32.04
2022-09-05T13:26:25.894Z,32.03
2022-09-05T13:27:25.870Z,32.07